San Miguel (591) Station Data

Red Flag Warning: No
Fire Weather Zone: 250
SDGE Region: Metro
Lat/Lon: 32.685/-116.98

Observations

Time Wind Speed/Gust Temp(F) RH Fuel Moist Fuel Temp(F) Dewpt(F) Tmax(F) Tmin(F) Accum Precip 10-min Precip SL Press(mb)
4/29 11:50pm 88 0 G 3 65° 20% - - 23° 82.3° 57.3° - - 1019.0
4/29 11:40pm 129 0 G 2 65° 20% - - 23° 82.3° 57.3° - - 1019.0
4/29 11:30pm 205 0 G 3 65° 21% - - 24° 82.3° 57.3° - - 1019.0
4/29 11:20pm 191 1 G 3 65° 19% - - 22° 82.3° 57.3° - - 1019.0
4/29 11:10pm 28 1 G 4 66° 19% - - 22° 82.3° 57.3° - - 1019.0
4/29 11:00pm 35 2 G 5 64° 20% - - 23° 82.3° 57.3° - - 1019.0
4/29 10:50pm 35 3 G 5 64° 22% - - 24° 82.3° 57.3° - - 1019.0
4/29 10:40pm 36 5 G 9 65° 22% - - 25° 82.3° 57.3° - - 1019.0
4/29 10:30pm 52 5 G 7 66° 21% - - 25° 82.3° 57.3° - - 1019.0
4/29 10:20pm 68 6 G 9 65° 21% - - 25° 82.3° 57.3° - - 1019.0
4/29 10:10pm 66 7 G 8 65° 20% - - 23° 82.3° 57.3° - - 1019.0
4/29 10:00pm 68 6 G 9 65° 19% - - 23° 82.3° 57.3° - - 1019.0
4/29 9:50pm 72 7 G 8 67° 18% - - 22° 82.3° 57.3° - - 1019.0
4/29 9:40pm 61 7 G 13 67° 17% - - 21° 82.3° 57.3° - - 1019.0
4/29 9:30pm 50 7 G 12 67° 17% - - 21° 82.3° 57.3° - - 1019.0
4/29 9:20pm 47 7 G 10 68° 19% - - 23° 82.3° 57.3° - - 1019.0
4/29 9:10pm 41 7 G 12 68° 18% - - 23° 82.3° 57.3° - - 1019.0
4/29 9:00pm 44 9 G 13 68° 18% - - 23° 82.3° 57.3° - - 1019.0
4/29 8:50pm 46 8 G 10 68° 19% - - 24° 82.3° 57.3° - - 1019.0
4/29 8:40pm 24 6 G 8 68° 20% - - 25° 82.3° 57.3° - - 1018.0
4/29 8:30pm 37 6 G 8 68° 18% - - 23° 82.3° 57.3° - - 1018.0
4/29 8:20pm 55 6 G 8 69° 18% - - 23° 82.3° 57.3° - - 1018.0
4/29 8:10pm 39 5 G 7 70° 18% - - 25° 82.3° 57.3° - - 1017.0
4/29 8:00pm 14 5 G 8 70° 19% - - 26° 82.3° 57.3° - - 1017.0
4/29 7:50pm 355 9 G 12 70° 17% - - 23° 82.3° 57.3° - - 1017.0
4/29 7:40pm 357 9 G 11 71° 17% - - 24° 82.3° 57.3° - - 1017.0
4/29 7:30pm 12 7 G 10 71° 15% - - 22° 82.3° 57.3° - - 1017.0
4/29 7:20pm 7 6 G 9 72° 15% - - 21° 82.3° 57.3° - - 1017.0
4/29 7:10pm 359 7 G 11 73° 14% - - 21° 82.3° 57.3° - - 1017.0
4/29 7:00pm 348 6 G 9 73° 12% - - 18° 82.3° 57.3° - - 1016.0
4/29 6:50pm 353 8 G 10 73° 12% - - 18° 82.3° 57.3° - - 1016.0
4/29 6:40pm 358 7 G 10 74° 13% - - 20° 82.3° 57.3° - - 1016.0
4/29 6:30pm 3 8 G 11 74° 13% - - 20° 82.3° 57.3° - - 1016.0
4/29 6:20pm 2 9 G 13 75° 12% - - 20° 82.3° 57.3° - - 1016.0
4/29 6:10pm 1 10 G 14 76° 12% - - 20° 82.3° 57.3° - - 1016.0
4/29 6:00pm 349 10 G 14 77° 11% - - 18° 82.3° 57.3° - - 1016.0
4/29 5:50pm 314 9 G 13 78° 11% - - 19° 82.3° 57.3° - - 1015.0
4/29 5:40pm 300 10 G 15 78° 10% - - 18° 82.3° 57.3° - - 1015.0
4/29 5:30pm 297 9 G 16 78° 10% - - 18° 82.3° 57.3° - - 1015.0
4/29 5:20pm 305 10 G 14 78° 10% - - 17° 82.3° 57.3° - - 1015.0
4/29 5:10pm 311 10 G 15 78° 10% - - 18° 82.3° 57.3° - - 1015.0
4/29 5:00pm 321 10 G 13 79° 10% - - 18° 82.3° 57.3° - - 1015.0
4/29 4:50pm 300 9 G 14 78° 10% - - 18° 82.3° 57.3° - - 1015.0
4/29 4:40pm 299 11 G 15 78° 11% - - 18° 82.3° 57.3° - - 1015.0
4/29 4:30pm 304 10 G 16 78° 11% - - 19° 82.3° 57.3° - - 1015.0
4/29 4:20pm 302 11 G 16 78° 11% - - 20° 82.3° 57.3° - - 1015.0
4/29 4:10pm 292 9 G 13 79° 11% - - 20° 82.3° 57.3° - - 1015.0
4/29 4:00pm 297 11 G 16 79° 11% - - 20° 82.3° 57.3° - - 1015.0
4/29 3:50pm 279 12 G 18 79° 11% - - 20° 82.3° 57.3° - - 1015.0
4/29 3:40pm 285 11 G 16 79° 11% - - 19° 82.3° 57.3° - - 1015.0
4/29 3:30pm 289 12 G 18 80° 10% - - 19° 82.3° 57.3° - - 1015.0
4/29 3:20pm 271 13 G 18 80° 10% - - 19° 82.3° 57.3° - - 1015.0
4/29 3:10pm 263 12 G 18 80° 10% - - 19° 82.3° 57.3° - - 1015.0
4/29 3:00pm 258 13 G 19 80° 10% - - 18° 82.3° 57.3° - - 1015.0
4/29 2:50pm 275 12 G 18 80° 10% - - 18° 82.3° 57.3° - - 1015.0
4/29 2:40pm 264 12 G 18 80° 10% - - 19° 82.3° 57.3° - - 1015.0
4/29 2:30pm 274 11 G 15 80° 10% - - 17° 82.3° 57.3° - - 1015.0
4/29 2:20pm 268 12 G 17 79° 10% - - 17° 82.3° 57.3° - - 1015.0
4/29 2:10pm 254 11 G 18 80° 9% - - 17° 82.3° 57.3° - - 1015.0
4/29 2:00pm 277 11 G 16 79° 9% - - 16° 82.3° 57.3° - - 1015.0
4/29 1:50pm 280 12 G 19 80° 9% - - 16° 82.3° 57.3° - - 1015.0
4/29 1:40pm 292 9 G 16 81° 9% - - 17° 82.3° 57.3° - - 1015.0
4/29 1:30pm 300 8 G 14 80° 9% - - 16° 80.7° 57.3° - - 1015.0
4/29 1:20pm 293 9 G 13 80° 9% - - 17° 80.7° 57.3° - - 1015.0
4/29 1:10pm 275 10 G 14 79° 10% - - 17° 80.6° 57.3° - - 1015.0
4/29 1:00pm 292 10 G 15 79° 9% - - 17° 80.6° 57.3° - - 1015.0
4/29 12:50pm 271 10 G 15 79° 9% - - 15° 80.4° 57.3° - - 1015.0
4/29 12:40pm 284 9 G 17 79° 9% - - 16° 80.4° 57.3° - - 1015.0
4/29 12:30pm 275 11 G 16 79° 9% - - 17° 80.2° 57.3° - - 1015.0
4/29 12:20pm 258 9 G 13 79° 9% - - 16° 79.6° 57.3° - - 1015.0
4/29 12:10pm 262 7 G 14 79° 10% - - 17° 79.6° 57.3° - - 1015.0
4/29 12:00pm 263 8 G 14 78° 10% - - 17° 79.3° 57.3° - - 1015.0
4/29 11:50am 270 11 G 16 78° 10% - - 18° 79.3° 57.3° - - 1015.0
4/29 11:40am 274 9 G 15 78° 10% - - 18° 79.3° 57.3° - - 1015.0
4/29 11:30am 312 7 G 19 78° 10% - - 18° 79.3° 57.3° - - 1015.0
4/29 11:20am 298 5 G 9 77° 11% - - 18° 78.1° 57.3° - - 1015.0
4/29 11:10am 305 6 G 10 77° 11% - - 19° 78.1° 57.3° - - 1015.0
4/29 11:00am 264 7 G 14 76° 11% - - 19° 76.9° 57.3° - - 1015.0
4/29 10:50am 267 7 G 14 76° 12% - - 19° 76.8° 57.3° - - 1015.0
4/29 10:40am 277 7 G 12 75° 13% - - 20° 76.1° 57.3° - - 1015.0
4/29 10:30am 275 5 G 9 75° 12% - - 20° 76.1° 57.3° - - 1015.0
4/29 10:20am 269 5 G 11 75° 13% - - 21° 76.1° 57.3° - - 1015.0
4/29 10:10am 273 5 G 9 75° 13% - - 20° 75.9° 57.3° - - 1015.0
4/29 10:00am 260 4 G 12 74° 11% - - 17° 74.9° 57.3° - - 1015.0
4/29 9:50am 235 3 G 7 74° 11% - - 16° 74.9° 57.3° - - 1015.0
4/29 9:40am 290 3 G 7 74° 11% - - 17° 74.2° 57.3° - - 1015.0
4/29 9:30am 262 4 G 7 73° 12% - - 17° 73.4° 57.3° - - 1015.0
4/29 9:20am 248 4 G 7 72° 12% - - 17° 72.4° 57.3° - - 1015.0
4/29 9:10am 267 3 G 6 71° 13% - - 18° 72° 57.3° - - 1015.0
4/29 9:00am 264 3 G 6 71° 15% - - 20° 71.2° 57.3° - - 1015.0
4/29 8:50am 270 2 G 4 69° 20% - - 26° 69.8° 57.3° - - 1015.0
4/29 8:40am 274 3 G 5 68° 21% - - 27° 69.2° 57.3° - - 1015.0
4/29 8:30am 300 3 G 5 68° 24% - - 30° 69.2° 57.3° - - 1015.0
4/29 8:20am 257 2 G 4 68° 26% - - 32° 69.2° 57.3° - - 1015.0
4/29 8:10am 348 2 G 4 68° 21% - - 27° 68.6° 57.3° - - 1015.0
4/29 8:00am 12 2 G 4 68° 23% - - 28° 68.3° 57.3° - - 1015.0
4/29 7:50am 294 1 G 2 66° 21% - - 24° 68.3° 57.3° - - 1015.0
4/29 7:40am 62 2 G 5 65° 24% - - 27° 68.3° 57.3° - - 1015.0
4/29 7:30am 55 3 G 4 64° 26% - - 28° 68.3° 57.3° - - 1015.0
4/29 7:20am 50 5 G 9 63° 24% - - 26° 68.3° 57.3° - - 1014.0
4/29 7:10am 8 1 G 6 61° 27% - - 27° 68.3° 57.3° - - 1014.0
4/29 7:00am 330 3 G 4 59° 30% - - 28° 68.3° 57.3° - - 1014.0
4/29 6:50am 45 4 G 8 60° 27% - - 26° 68.3° 57.3° - - 1014.0
4/29 6:40am 32 5 G 8 58° 31% - - 28° 68.3° 57.3° - - 1014.0
4/29 6:30am 10 2 G 5 61° 27% - - 26° 68.3° 58.1° - - 1014.0
4/29 6:20am 98 6 G 12 68° 12% - - 13° 68.3° 58.1° - - 1013.0
4/29 6:10am 90 8 G 12 66° 12% - - 12° 68.3° 58.1° - - 1013.0
4/29 6:00am 94 4 G 9 64° 17% - - 18° 68.3° 58.1° - - 1013.0
4/29 5:50am 56 6 G 8 63° 19% - - 20° 68.3° 58.1° - - 1013.0
4/29 5:40am 64 4 G 9 63° 20% - - 21° 68.3° 58.1° - - 1013.0
4/29 5:30am 71 6 G 10 65° 16% - - 18° 68.3° 58.1° - - 1013.0
4/29 5:20am 74 9 G 10 65° 17% - - 19° 68.3° 58.1° - - 1013.0
4/29 5:10am 71 9 G 11 63° 20% - - 22° 68.3° 58.1° - - 1013.0
4/29 5:00am 56 7 G 9 62° 25% - - 26° 68.3° 58.1° - - 1013.0
4/29 4:50am 49 6 G 8 61° 28% - - 27° 68.3° 58.1° - - 1012.0
4/29 4:40am 27 7 G 9 60° 35% - - 32° 68.3° 58.1° - - 1012.0
4/29 4:30am 81 6 G 10 67° 15% - - 18° 68.3° 58.1° - - 1012.0
4/29 4:20am 76 9 G 12 64° 23% - - 25° 68.3° 58.1° - - 1012.0
4/29 4:10am 58 9 G 13 60° 33% - - 31° 68.3° 58.1° - - 1012.0
4/29 4:00am 359 3 G 8 65° 27% - - 29° 68.3° 58.1° - - 1012.0
4/29 3:50am 75 7 G 12 66° 23% - - 27° 68° 58.1° - - 1012.0
4/29 3:40am 81 8 G 11 62° 30% - - 31° 64.9° 58.1° - - 1012.0
4/29 3:30am 110 3 G 9 59° 43% - - 36° 64.4° 58.1° - - 1012.0
4/29 3:20am 25 7 G 10 63° 33% - - 33° 64.4° 58.1° - - 1012.0
4/29 3:10am 48 8 G 10 62° 35% - - 34° 63.8° 58.1° - - 1012.0
4/29 3:00am 55 7 G 10 60° 44% - - 38° 62.7° 58.1° - - 1012.0
4/29 2:50am 71 5 G 8 59° 48% - - 39° 62.7° 58.1° - - 1012.0
4/29 2:40am 64 6 G 9 59° 52% - - 41° 62.7° 58.1° - - 1012.0
4/29 2:30am 326 4 G 7 59° 56% - - 44° 62.7° 58.4° - - 1012.0
4/29 2:20am 247 1 G 3 60° 56% - - 44° 62.7° 58.7° - - 1011.0
4/29 2:10am 193 2 G 3 60° 52% - - 43° 62.7° 58.7° - - 1011.0
4/29 2:00am 153 2 G 4 60° 50% - - 42° 62.7° 58.7° - - 1011.0
4/29 1:50am 60 3 G 5 60° 53% - - 43° 62.7° 58.7° - - 1011.0
4/29 1:40am 44 5 G 7 61° 55% - - 45° 62.7° 58.7° - - 1011.0
4/29 1:30am 48 4 G 6 62° 55% - - 45° 62.7° 58.7° - - 1011.0
4/29 1:20am 51 5 G 7 62° 57% - - 46° 62.7° 58.7° - - 1011.0
4/29 1:10am 48 5 G 7 62° 58% - - 47° 62.7° 58.7° - - 1011.0
4/29 1:00am 67 6 G 9 61° 62% - - 48° 61.9° 58.7° - - 1011.0
4/29 12:50am 59 6 G 9 61° 67% - - 49° 61.1° 58.7° - - 1011.0
4/29 12:40am 59 7 G 9 60° 70% - - 50° 60.9° 58.7° - - 1011.0
4/29 12:30am 53 6 G 8 60° 70% - - 50° 60.7° 58.8° - - 1011.0
4/29 12:20am 28 3 G 4 60° 70% - - 51° 60.7° 60.2° - - 1011.0
4/29 12:10am 327 0 G 1 60° 70% - - 50° 60.6° 60.2° - - 1011.0
4/29 12:00am 51 3 G 4 60° 69% - - 50° 75.2° 55.2° - - 1011.0
4/28 11:50pm 56 3 G 4 61° 69% - - 50° 75.2° 55.2° - - 1011.0
4/28 11:40pm 65 1 G 3 60° 69% - - 50° 75.2° 55.2° - - 1011.0
4/28 11:30pm 142 2 G 4 60° 70% - - 50° 75.2° 55.2° - - 1011.0
4/28 11:20pm 61 1 G 2 60° 70% - - 50° 75.2° 55.2° - - 1011.0
4/28 11:10pm 297 2 G 4 61° 69% - - 50° 75.2° 55.2° - - 1011.0
4/28 11:00pm 4 1 G 2 61° 69% - - 51° 75.2° 55.2° - - 1011.0
4/28 10:50pm 351 3 G 5 61° 68% - - 51° 75.2° 55.2° - - 1011.0
4/28 10:40pm 6 3 G 4 62° 65% - - 50° 75.2° 55.2° - - 1011.0
4/28 10:30pm 337 2 G 4 62° 62% - - 49° 75.2° 55.2° - - 1011.0
4/28 10:20pm 160 1 G 2 62° 61% - - 48° 75.2° 55.2° - - 1011.0
4/28 10:10pm 264 2 G 4 63° 60% - - 49° 75.2° 55.2° - - 1011.0
4/28 10:00pm 39 1 G 2 64° 48% - - 44° 75.2° 55.2° - - 1011.0
4/28 9:50pm 105 2 G 4 63° 52% - - 45° 75.2° 55.2° - - 1010.0
4/28 9:40pm 263 1 G 4 63° 61% - - 49° 75.2° 55.2° - - 1010.0
4/28 9:30pm 233 2 G 3 63° 56% - - 47° 75.2° 55.2° - - 1010.0
4/28 9:20pm 343 2 G 3 64° 50% - - 45° 75.2° 55.2° - - 1010.0
4/28 9:10pm 31 3 G 5 64° 45% - - 43° 75.2° 55.2° - - 1010.0
4/28 9:00pm 111 2 G 5 64° 57% - - 48° 75.2° 55.2° - - 1010.0
4/28 8:50pm 0 0 G 0 63° 60% - - 49° 75.2° 55.2° - - 1010.0
4/28 8:40pm 302 0 G 2 64° 60% - - 49° 75.2° 55.2° - - 1010.0
4/28 8:30pm 241 1 G 2 64° 60% - - 49° 75.2° 55.2° - - 1010.0
4/28 8:20pm 173 1 G 3 64° 59% - - 49° 75.2° 55.2° - - 1010.0
4/28 8:10pm 170 3 G 5 64° 56% - - 48° 75.2° 55.2° - - 1010.0
4/28 8:00pm 187 2 G 4 64° 57% - - 49° 75.2° 55.2° - - 1010.0
4/28 7:50pm 244 3 G 5 65° 54% - - 48° 75.2° 55.2° - - 1009.0
4/28 7:40pm 336 7 G 9 67° 38% - - 41° 75.2° 55.2° - - 1009.0
4/28 7:30pm 346 5 G 7 67° 38% - - 41° 75.2° 55.2° - - 1009.0
4/28 7:20pm 334 6 G 8 67° 37% - - 40° 75.2° 55.2° - - 1009.0
4/28 7:10pm 321 5 G 9 67° 41% - - 43° 75.2° 55.2° - - 1009.0
4/28 7:00pm 296 5 G 8 68° 48% - - 48° 75.2° 55.2° - - 1009.0
4/28 6:50pm 291 5 G 9 68° 50% - - 49° 75.2° 55.2° - - 1009.0
4/28 6:40pm 267 4 G 7 68° 52% - - 50° 75.2° 55.2° - - 1009.0
4/28 6:30pm 250 5 G 8 67° 54% - - 50° 75.2° 55.2° - - 1009.0
4/28 6:20pm 259 6 G 9 67° 53% - - 50° 75.2° 55.2° - - 1009.0
4/28 6:10pm 264 8 G 12 67° 54% - - 50° 75.2° 55.2° - - 1008.0
4/28 6:00pm 270 8 G 14 67° 54% - - 50° 75.2° 55.2° - - 1008.0